sensor_id;sensor_type;location;lat;lon;timestamp;P1;durP1;ratioP1;P2;durP2;ratioP2
26588;SDS011;14235;48.532;8.722;2023-05-07T00:00:37;2.58;;;2.35;;
26588;SDS011;14235;48.532;8.722;2023-05-07T00:03:03;4.30;;;2.40;;
26588;SDS011;14235;48.532;8.722;2023-05-07T00:05:28;3.80;;;2.45;;
26588;SDS011;14235;48.532;8.722;2023-05-07T00:07:54;2.28;;;2.17;;
26588;SDS011;14235;48.532;8.722;2023-05-07T00:10:20;3.00;;;2.15;;
26588;SDS011;14235;48.532;8.722;2023-05-07T00:12:46;2.58;;;2.38;;
26588;SDS011;14235;48.532;8.722;2023-05-07T00:15:12;3.08;;;2.40;;
26588;SDS011;14235;48.532;8.722;2023-05-07T00:17:37;5.53;;;2.20;;
26588;SDS011;14235;48.532;8.722;2023-05-07T00:20:04;2.45;;;2.25;;
26588;SDS011;14235;48.532;8.722;2023-05-07T00:22:30;2.40;;;2.20;;
26588;SDS011;14235;48.532;8.722;2023-05-07T00:24:57;2.65;;;2.03;;
26588;SDS011;14235;48.532;8.722;2023-05-07T00:27:23;4.15;;;2.00;;
26588;SDS011;14235;48.532;8.722;2023-05-07T00:29:49;2.40;;;2.20;;
26588;SDS011;14235;48.532;8.722;2023-05-07T00:32:15;3.00;;;2.20;;
26588;SDS011;14235;48.532;8.722;2023-05-07T00:34:41;3.40;;;2.70;;
26588;SDS011;14235;48.532;8.722;2023-05-07T00:37:07;3.13;;;2.03;;
26588;SDS011;14235;48.532;8.722;2023-05-07T00:39:34;4.03;;;2.45;;
26588;SDS011;14235;48.532;8.722;2023-05-07T00:42:00;2.75;;;2.20;;
26588;SDS011;14235;48.532;8.722;2023-05-07T00:44:26;3.22;;;2.15;;
26588;SDS011;14235;48.532;8.722;2023-05-07T00:46:52;2.45;;;2.25;;
26588;SDS011;14235;48.532;8.722;2023-05-07T00:49:18;3.15;;;2.20;;
26588;SDS011;14235;48.532;8.722;2023-05-07T00:51:45;2.75;;;2.33;;
26588;SDS011;14235;48.532;8.722;2023-05-07T00:54:11;2.30;;;1.80;;
26588;SDS011;14235;48.532;8.722;2023-05-07T00:56:38;3.85;;;2.40;;
26588;SDS011;14235;48.532;8.722;2023-05-07T00:59:04;2.92;;;1.90;;
26588;SDS011;14235;48.532;8.722;2023-05-07T01:01:31;5.43;;;2.47;;
26588;SDS011;14235;48.532;8.722;2023-05-07T01:03:57;2.10;;;1.90;;
26588;SDS011;14235;48.532;8.722;2023-05-07T01:06:23;3.42;;;2.30;;
26588;SDS011;14235;48.532;8.722;2023-05-07T01:08:51;2.85;;;2.08;;
26588;SDS011;14235;48.532;8.722;2023-05-07T01:11:18;4.55;;;2.33;;
26588;SDS011;14235;48.532;8.722;2023-05-07T01:13:47;2.50;;;2.30;;
26588;SDS011;14235;48.532;8.722;2023-05-07T01:16:14;3.15;;;2.10;;
26588;SDS011;14235;48.532;8.722;2023-05-07T01:18:40;2.85;;;2.10;;
26588;SDS011;14235;48.532;8.722;2023-05-07T01:21:05;2.05;;;1.85;;
26588;SDS011;14235;48.532;8.722;2023-05-07T01:23:35;3.72;;;2.30;;
26588;SDS011;14235;48.532;8.722;2023-05-07T01:26:01;7.85;;;2.20;;
26588;SDS011;14235;48.532;8.722;2023-05-07T01:28:26;4.97;;;1.98;;
26588;SDS011;14235;48.532;8.722;2023-05-07T01:30:53;4.35;;;2.05;;
26588;SDS011;14235;48.532;8.722;2023-05-07T01:33:22;2.15;;;1.98;;
26588;SDS011;14235;48.532;8.722;2023-05-07T01:35:51;1.98;;;1.85;;
26588;SDS011;14235;48.532;8.722;2023-05-07T01:38:18;2.20;;;2.10;;
26588;SDS011;14235;48.532;8.722;2023-05-07T01:40:46;2.22;;;2.00;;
26588;SDS011;14235;48.532;8.722;2023-05-07T01:43:12;4.45;;;2.45;;
26588;SDS011;14235;48.532;8.722;2023-05-07T01:45:38;2.78;;;2.58;;
26588;SDS011;14235;48.532;8.722;2023-05-07T01:48:05;4.30;;;2.58;;
26588;SDS011;14235;48.532;8.722;2023-05-07T01:50:32;2.88;;;2.30;;
26588;SDS011;14235;48.532;8.722;2023-05-07T01:52:58;3.47;;;2.50;;
26588;SDS011;14235;48.532;8.722;2023-05-07T01:55:24;2.75;;;2.42;;
26588;SDS011;14235;48.532;8.722;2023-05-07T01:57:50;4.15;;;2.25;;
26588;SDS011;14235;48.532;8.722;2023-05-07T02:00:16;2.42;;;2.30;;
26588;SDS011;14235;48.532;8.722;2023-05-07T02:02:42;2.95;;;2.40;;
26588;SDS011;14235;48.532;8.722;2023-05-07T02:05:08;3.88;;;2.70;;
26588;SDS011;14235;48.532;8.722;2023-05-07T02:07:34;4.70;;;2.55;;
26588;SDS011;14235;48.532;8.722;2023-05-07T02:09:59;4.75;;;2.55;;
26588;SDS011;14235;48.532;8.722;2023-05-07T02:12:25;2.40;;;2.22;;
26588;SDS011;14235;48.532;8.722;2023-05-07T02:14:51;5.07;;;2.42;;
26588;SDS011;14235;48.532;8.722;2023-05-07T02:17:16;2.47;;;2.28;;
26588;SDS011;14235;48.532;8.722;2023-05-07T02:19:42;3.60;;;2.40;;
26588;SDS011;14235;48.532;8.722;2023-05-07T02:22:09;2.47;;;2.30;;
26588;SDS011;14235;48.532;8.722;2023-05-07T02:24:35;2.20;;;2.00;;
26588;SDS011;14235;48.532;8.722;2023-05-07T02:27:01;3.30;;;2.20;;
26588;SDS011;14235;48.532;8.722;2023-05-07T02:29:28;3.13;;;2.40;;
26588;SDS011;14235;48.532;8.722;2023-05-07T02:31:54;2.28;;;2.10;;
26588;SDS011;14235;48.532;8.722;2023-05-07T02:34:20;4.25;;;2.13;;
26588;SDS011;14235;48.532;8.722;2023-05-07T02:36:46;2.85;;;2.33;;
26588;SDS011;14235;48.532;8.722;2023-05-07T02:39:12;6.10;;;2.17;;
26588;SDS011;14235;48.532;8.722;2023-05-07T02:41:39;3.83;;;2.42;;
26588;SDS011;14235;48.532;8.722;2023-05-07T02:44:04;2.42;;;2.22;;
26588;SDS011;14235;48.532;8.722;2023-05-07T02:46:30;2.33;;;2.10;;
26588;SDS011;14235;48.532;8.722;2023-05-07T02:48:56;2.30;;;2.10;;
26588;SDS011;14235;48.532;8.722;2023-05-07T02:51:22;4.93;;;2.30;;
26588;SDS011;14235;48.532;8.722;2023-05-07T02:53:48;1.92;;;1.83;;
26588;SDS011;14235;48.532;8.722;2023-05-07T02:56:14;2.28;;;2.17;;
26588;SDS011;14235;48.532;8.722;2023-05-07T02:58:40;2.90;;;2.03;;
26588;SDS011;14235;48.532;8.722;2023-05-07T03:01:07;2.03;;;1.92;;
26588;SDS011;14235;48.532;8.722;2023-05-07T03:03:33;2.65;;;2.40;;
26588;SDS011;14235;48.532;8.722;2023-05-07T03:05:58;2.42;;;2.20;;
26588;SDS011;14235;48.532;8.722;2023-05-07T03:08:24;3.65;;;2.35;;
26588;SDS011;14235;48.532;8.722;2023-05-07T03:10:50;3.47;;;2.20;;
26588;SDS011;14235;48.532;8.722;2023-05-07T03:13:16;4.82;;;2.45;;
26588;SDS011;14235;48.532;8.722;2023-05-07T03:15:42;4.88;;;2.38;;
26588;SDS011;14235;48.532;8.722;2023-05-07T03:18:08;3.15;;;2.38;;
26588;SDS011;14235;48.532;8.722;2023-05-07T03:20:33;6.20;;;2.40;;
26588;SDS011;14235;48.532;8.722;2023-05-07T03:23:01;3.25;;;2.42;;
26588;SDS011;14235;48.532;8.722;2023-05-07T03:25:27;2.22;;;2.05;;
26588;SDS011;14235;48.532;8.722;2023-05-07T03:27:52;2.92;;;2.50;;
26588;SDS011;14235;48.532;8.722;2023-05-07T03:30:18;3.17;;;2.35;;
26588;SDS011;14235;48.532;8.722;2023-05-07T03:32:45;2.42;;;2.20;;
26588;SDS011;14235;48.532;8.722;2023-05-07T03:35:10;2.10;;;2.00;;
26588;SDS011;14235;48.532;8.722;2023-05-07T03:37:37;3.85;;;2.30;;
26588;SDS011;14235;48.532;8.722;2023-05-07T03:40:03;5.28;;;2.28;;
26588;SDS011;14235;48.532;8.722;2023-05-07T03:42:30;2.78;;;2.58;;
26588;SDS011;14235;48.532;8.722;2023-05-07T03:44:56;2.17;;;1.98;;
26588;SDS011;14235;48.532;8.722;2023-05-07T03:47:21;2.55;;;2.40;;
26588;SDS011;14235;48.532;8.722;2023-05-07T03:49:47;3.30;;;2.20;;
26588;SDS011;14235;48.532;8.722;2023-05-07T03:52:14;4.45;;;2.25;;
26588;SDS011;14235;48.532;8.722;2023-05-07T03:54:40;2.53;;;2.28;;
26588;SDS011;14235;48.532;8.722;2023-05-07T03:57:05;2.17;;;2.08;;
26588;SDS011;14235;48.532;8.722;2023-05-07T03:59:31;2.45;;;2.17;;
26588;SDS011;14235;48.532;8.722;2023-05-07T04:01:57;2.55;;;2.35;;
26588;SDS011;14235;48.532;8.722;2023-05-07T04:04:23;3.38;;;2.50;;
26588;SDS011;14235;48.532;8.722;2023-05-07T04:06:48;2.30;;;2.10;;
26588;SDS011;14235;48.532;8.722;2023-05-07T04:09:14;2.05;;;1.95;;
26588;SDS011;14235;48.532;8.722;2023-05-07T04:11:40;2.50;;;2.28;;
26588;SDS011;14235;48.532;8.722;2023-05-07T04:14:06;4.07;;;2.13;;
26588;SDS011;14235;48.532;8.722;2023-05-07T04:16:31;2.67;;;2.20;;
26588;SDS011;14235;48.532;8.722;2023-05-07T04:18:57;4.32;;;2.30;;
26588;SDS011;14235;48.532;8.722;2023-05-07T04:21:22;3.47;;;2.10;;
26588;SDS011;14235;48.532;8.722;2023-05-07T04:23:48;2.20;;;2.10;;
26588;SDS011;14235;48.532;8.722;2023-05-07T04:26:14;2.35;;;2.15;;
26588;SDS011;14235;48.532;8.722;2023-05-07T04:28:41;2.20;;;2.10;;
26588;SDS011;14235;48.532;8.722;2023-05-07T04:31:07;2.80;;;2.60;;
26588;SDS011;14235;48.532;8.722;2023-05-07T04:33:33;4.00;;;2.67;;
26588;SDS011;14235;48.532;8.722;2023-05-07T04:36:02;5.32;;;2.42;;
26588;SDS011;14235;48.532;8.722;2023-05-07T04:38:31;3.10;;;2.15;;
26588;SDS011;14235;48.532;8.722;2023-05-07T04:40:58;2.30;;;2.20;;
26588;SDS011;14235;48.532;8.722;2023-05-07T04:43:34;2.70;;;2.50;;
26588;SDS011;14235;48.532;8.722;2023-05-07T04:46:00;2.30;;;2.20;;
26588;SDS011;14235;48.532;8.722;2023-05-07T04:48:25;4.10;;;2.22;;
26588;SDS011;14235;48.532;8.722;2023-05-07T04:50:51;3.00;;;2.10;;
26588;SDS011;14235;48.532;8.722;2023-05-07T04:53:17;2.55;;;2.35;;
26588;SDS011;14235;48.532;8.722;2023-05-07T04:55:43;2.35;;;2.22;;
26588;SDS011;14235;48.532;8.722;2023-05-07T04:58:10;2.45;;;2.28;;
26588;SDS011;14235;48.532;8.722;2023-05-07T05:00:36;2.22;;;2.08;;
26588;SDS011;14235;48.532;8.722;2023-05-07T05:03:02;2.38;;;2.05;;
26588;SDS011;14235;48.532;8.722;2023-05-07T05:05:28;2.58;;;2.20;;
26588;SDS011;14235;48.532;8.722;2023-05-07T05:07:54;4.63;;;2.78;;
26588;SDS011;14235;48.532;8.722;2023-05-07T05:10:20;4.25;;;3.35;;
26588;SDS011;14235;48.532;8.722;2023-05-07T05:12:47;4.20;;;3.80;;
26588;SDS011;14235;48.532;8.722;2023-05-07T05:15:12;6.63;;;4.25;;
26588;SDS011;14235;48.532;8.722;2023-05-07T05:17:38;4.55;;;3.83;;
26588;SDS011;14235;48.532;8.722;2023-05-07T05:20:04;3.30;;;3.05;;
26588;SDS011;14235;48.532;8.722;2023-05-07T05:22:31;3.47;;;2.97;;
26588;SDS011;14235;48.532;8.722;2023-05-07T05:24:57;3.22;;;2.80;;
26588;SDS011;14235;48.532;8.722;2023-05-07T05:27:22;3.75;;;2.42;;
26588;SDS011;14235;48.532;8.722;2023-05-07T05:29:48;2.80;;;2.60;;
26588;SDS011;14235;48.532;8.722;2023-05-07T05:32:14;2.70;;;2.30;;
26588;SDS011;14235;48.532;8.722;2023-05-07T05:34:40;2.55;;;2.10;;
26588;SDS011;14235;48.532;8.722;2023-05-07T05:37:06;3.95;;;2.63;;
26588;SDS011;14235;48.532;8.722;2023-05-07T05:39:31;3.70;;;2.30;;
26588;SDS011;14235;48.532;8.722;2023-05-07T05:41:57;3.03;;;2.72;;
26588;SDS011;14235;48.532;8.722;2023-05-07T05:44:23;2.78;;;2.58;;
26588;SDS011;14235;48.532;8.722;2023-05-07T05:46:48;3.25;;;2.42;;
26588;SDS011;14235;48.532;8.722;2023-05-07T05:49:15;4.20;;;2.58;;
26588;SDS011;14235;48.532;8.722;2023-05-07T05:51:40;5.90;;;2.45;;
26588;SDS011;14235;48.532;8.722;2023-05-07T05:54:06;2.80;;;2.60;;
26588;SDS011;14235;48.532;8.722;2023-05-07T06:20:27;2.78;;;2.58;;
26588;SDS011;14235;48.532;8.722;2023-05-07T06:22:54;2.58;;;2.38;;
26588;SDS011;14235;48.532;8.722;2023-05-07T06:25:20;3.08;;;2.75;;
26588;SDS011;14235;48.532;8.722;2023-05-07T06:27:46;2.60;;;2.25;;
26588;SDS011;14235;48.532;8.722;2023-05-07T06:30:15;4.05;;;2.60;;
26588;SDS011;14235;48.532;8.722;2023-05-07T06:32:41;2.97;;;2.47;;
26588;SDS011;14235;48.532;8.722;2023-05-07T06:35:07;2.80;;;2.55;;
26588;SDS011;14235;48.532;8.722;2023-05-07T06:37:33;3.50;;;2.47;;
26588;SDS011;14235;48.532;8.722;2023-05-07T06:39:59;2.72;;;2.47;;
26588;SDS011;14235;48.532;8.722;2023-05-07T06:42:25;2.58;;;2.40;;
26588;SDS011;14235;48.532;8.722;2023-05-07T06:44:51;4.15;;;2.75;;
26588;SDS011;14235;48.532;8.722;2023-05-07T06:47:17;3.70;;;2.58;;
26588;SDS011;14235;48.532;8.722;2023-05-07T06:49:43;2.65;;;2.40;;
26588;SDS011;14235;48.532;8.722;2023-05-07T06:52:09;2.55;;;2.35;;
26588;SDS011;14235;48.532;8.722;2023-05-07T06:54:37;2.20;;;2.10;;
26588;SDS011;14235;48.532;8.722;2023-05-07T06:57:03;3.13;;;2.17;;
26588;SDS011;14235;48.532;8.722;2023-05-07T06:59:29;4.10;;;2.30;;
26588;SDS011;14235;48.532;8.722;2023-05-07T07:01:54;2.65;;;2.22;;
26588;SDS011;14235;48.532;8.722;2023-05-07T07:04:20;3.17;;;2.58;;
26588;SDS011;14235;48.532;8.722;2023-05-07T07:06:48;2.50;;;2.30;;
26588;SDS011;14235;48.532;8.722;2023-05-07T07:09:13;3.03;;;2.30;;
26588;SDS011;14235;48.532;8.722;2023-05-07T07:11:39;2.85;;;2.58;;
26588;SDS011;14235;48.532;8.722;2023-05-07T07:14:05;3.33;;;2.70;;
26588;SDS011;14235;48.532;8.722;2023-05-07T07:16:31;3.10;;;2.80;;
26588;SDS011;14235;48.532;8.722;2023-05-07T07:18:57;2.70;;;2.50;;
26588;SDS011;14235;48.532;8.722;2023-05-07T07:21:22;4.22;;;2.70;;
26588;SDS011;14235;48.532;8.722;2023-05-07T07:23:55;3.50;;;2.72;;
26588;SDS011;14235;48.532;8.722;2023-05-07T07:26:29;3.60;;;2.70;;
26588;SDS011;14235;48.532;8.722;2023-05-07T07:28:58;3.50;;;2.63;;
26588;SDS011;14235;48.532;8.722;2023-05-07T07:31:24;2.92;;;2.72;;
26588;SDS011;14235;48.532;8.722;2023-05-07T07:33:55;4.05;;;2.75;;
26588;SDS011;14235;48.532;8.722;2023-05-07T07:36:21;4.30;;;2.40;;
26588;SDS011;14235;48.532;8.722;2023-05-07T07:38:54;2.47;;;2.38;;
26588;SDS011;14235;48.532;8.722;2023-05-07T07:41:20;3.78;;;2.97;;
26588;SDS011;14235;48.532;8.722;2023-05-07T07:43:48;3.10;;;2.90;;
26588;SDS011;14235;48.532;8.722;2023-05-07T07:46:18;2.97;;;2.78;;
26588;SDS011;14235;48.532;8.722;2023-05-07T07:48:44;3.38;;;3.03;;
26588;SDS011;14235;48.532;8.722;2023-05-07T07:51:10;3.40;;;2.97;;
26588;SDS011;14235;48.532;8.722;2023-05-07T07:53:38;2.90;;;2.60;;
26588;SDS011;14235;48.532;8.722;2023-05-07T07:56:10;3.55;;;2.78;;
26588;SDS011;14235;48.532;8.722;2023-05-07T07:58:43;3.35;;;3.08;;
26588;SDS011;14235;48.532;8.722;2023-05-07T08:01:09;2.42;;;2.33;;
26588;SDS011;14235;48.532;8.722;2023-05-07T08:03:40;2.92;;;2.72;;
26588;SDS011;14235;48.532;8.722;2023-05-07T08:06:08;3.90;;;2.90;;
26588;SDS011;14235;48.532;8.722;2023-05-07T08:08:36;4.07;;;2.80;;
26588;SDS011;14235;48.532;8.722;2023-05-07T08:11:02;3.65;;;3.42;;
26588;SDS011;14235;48.532;8.722;2023-05-07T08:13:31;4.20;;;2.92;;
26588;SDS011;14235;48.532;8.722;2023-05-07T08:16:02;3.85;;;2.78;;
26588;SDS011;14235;48.532;8.722;2023-05-07T08:18:28;7.32;;;3.00;;
26588;SDS011;14235;48.532;8.722;2023-05-07T08:21:04;4.88;;;3.00;;
26588;SDS011;14235;48.532;8.722;2023-05-07T08:23:32;3.50;;;3.03;;
26588;SDS011;14235;48.532;8.722;2023-05-07T08:26:06;3.08;;;2.90;;
26588;SDS011;14235;48.532;8.722;2023-05-07T08:28:37;3.25;;;3.00;;
26588;SDS011;14235;48.532;8.722;2023-05-07T08:31:17;3.78;;;3.03;;
26588;SDS011;14235;48.532;8.722;2023-05-07T08:34:17;3.60;;;2.60;;
26588;SDS011;14235;48.532;8.722;2023-05-07T08:36:47;3.50;;;3.10;;
26588;SDS011;14235;48.532;8.722;2023-05-07T08:39:16;3.28;;;3.00;;
26588;SDS011;14235;48.532;8.722;2023-05-07T08:42:08;3.03;;;2.80;;
26588;SDS011;14235;48.532;8.722;2023-05-07T08:44:46;4.68;;;3.20;;
26588;SDS011;14235;48.532;8.722;2023-05-07T08:47:55;3.20;;;3.00;;
26588;SDS011;14235;48.532;8.722;2023-05-07T08:50:29;4.10;;;3.42;;
26588;SDS011;14235;48.532;8.722;2023-05-07T08:52:55;3.97;;;3.53;;
26588;SDS011;14235;48.532;8.722;2023-05-07T08:55:22;4.15;;;3.85;;
26588;SDS011;14235;48.532;8.722;2023-05-07T08:57:49;4.80;;;3.42;;
26588;SDS011;14235;48.532;8.722;2023-05-07T09:00:23;5.57;;;3.55;;
26588;SDS011;14235;48.532;8.722;2023-05-07T09:02:52;4.45;;;3.97;;
26588;SDS011;14235;48.532;8.722;2023-05-07T09:05:24;5.18;;;4.07;;
26588;SDS011;14235;48.532;8.722;2023-05-07T09:07:58;3.92;;;3.22;;
26588;SDS011;14235;48.532;8.722;2023-05-07T09:10:27;4.50;;;3.85;;
26588;SDS011;14235;48.532;8.722;2023-05-07T09:16:36;4.72;;;3.80;;
26588;SDS011;14235;48.532;8.722;2023-05-07T09:19:07;3.80;;;3.50;;
26588;SDS011;14235;48.532;8.722;2023-05-07T09:21:44;3.92;;;3.63;;
26588;SDS011;14235;48.532;8.722;2023-05-07T09:24:15;3.78;;;3.40;;
26588;SDS011;14235;48.532;8.722;2023-05-07T09:27:08;3.30;;;3.10;;
26588;SDS011;14235;48.532;8.722;2023-05-07T09:29:43;3.17;;;2.88;;
26588;SDS011;14235;48.532;8.722;2023-05-07T09:32:11;3.15;;;2.92;;
26588;SDS011;14235;48.532;8.722;2023-05-07T09:34:40;3.58;;;3.20;;
26588;SDS011;14235;48.532;8.722;2023-05-07T09:37:15;3.15;;;2.95;;
26588;SDS011;14235;48.532;8.722;2023-05-07T09:39:50;3.20;;;2.97;;
26588;SDS011;14235;48.532;8.722;2023-05-07T09:42:16;3.35;;;3.15;;
26588;SDS011;14235;48.532;8.722;2023-05-07T09:44:52;3.40;;;3.10;;
26588;SDS011;14235;48.532;8.722;2023-05-07T09:47:36;3.78;;;3.00;;
26588;SDS011;14235;48.532;8.722;2023-05-07T09:50:12;3.00;;;2.80;;
26588;SDS011;14235;48.532;8.722;2023-05-07T09:52:40;3.25;;;3.05;;
26588;SDS011;14235;48.532;8.722;2023-05-07T09:55:09;2.88;;;2.67;;
26588;SDS011;14235;48.532;8.722;2023-05-07T09:57:40;2.90;;;2.70;;
26588;SDS011;14235;48.532;8.722;2023-05-07T10:00:08;4.85;;;2.65;;
26588;SDS011;14235;48.532;8.722;2023-05-07T10:02:35;2.80;;;2.58;;
26588;SDS011;14235;48.532;8.722;2023-05-07T10:05:03;3.00;;;2.70;;
26588;SDS011;14235;48.532;8.722;2023-05-07T10:07:35;2.72;;;2.53;;
26588;SDS011;14235;48.532;8.722;2023-05-07T10:10:00;2.75;;;2.30;;
26588;SDS011;14235;48.532;8.722;2023-05-07T10:12:37;2.92;;;2.72;;
26588;SDS011;14235;48.532;8.722;2023-05-07T10:15:06;3.50;;;2.42;;
26588;SDS011;14235;48.532;8.722;2023-05-07T10:17:36;4.78;;;2.75;;
26588;SDS011;14235;48.532;8.722;2023-05-07T10:20:06;2.70;;;2.50;;
26588;SDS011;14235;48.532;8.722;2023-05-07T10:25:42;3.03;;;2.72;;
26588;SDS011;14235;48.532;8.722;2023-05-07T10:28:08;3.10;;;2.88;;
26588;SDS011;14235;48.532;8.722;2023-05-07T10:33:38;2.72;;;2.53;;
26588;SDS011;14235;48.532;8.722;2023-05-07T10:36:05;2.83;;;2.53;;
26588;SDS011;14235;48.532;8.722;2023-05-07T10:38:41;2.95;;;2.50;;
26588;SDS011;14235;48.532;8.722;2023-05-07T10:41:07;2.83;;;2.63;;
26588;SDS011;14235;48.532;8.722;2023-05-07T10:43:39;2.90;;;2.70;;
26588;SDS011;14235;48.532;8.722;2023-05-07T10:46:10;3.33;;;3.00;;
26588;SDS011;14235;48.532;8.722;2023-05-07T10:51:47;2.88;;;2.67;;
26588;SDS011;14235;48.532;8.722;2023-05-07T10:55:20;3.03;;;2.55;;
26588;SDS011;14235;48.532;8.722;2023-05-07T10:57:50;2.55;;;2.35;;
26588;SDS011;14235;48.532;8.722;2023-05-07T11:03:05;3.50;;;2.55;;
26588;SDS011;14235;48.532;8.722;2023-05-07T11:05:34;3.08;;;2.83;;
26588;SDS011;14235;48.532;8.722;2023-05-07T11:08:48;4.47;;;2.60;;
26588;SDS011;14235;48.532;8.722;2023-05-07T11:14:45;2.42;;;2.22;;
26588;SDS011;14235;48.532;8.722;2023-05-07T11:17:26;2.80;;;2.60;;
26588;SDS011;14235;48.532;8.722;2023-05-07T11:19:55;2.92;;;2.70;;
26588;SDS011;14235;48.532;8.722;2023-05-07T11:22:36;3.00;;;2.80;;
26588;SDS011;14235;48.532;8.722;2023-05-07T11:25:05;2.00;;;1.90;;
26588;SDS011;14235;48.532;8.722;2023-05-07T11:27:34;1.92;;;1.80;;
26588;SDS011;14235;48.532;8.722;2023-05-07T11:30:06;2.88;;;1.52;;
26588;SDS011;14235;48.532;8.722;2023-05-07T11:32:37;1.65;;;1.55;;
26588;SDS011;14235;48.532;8.722;2023-05-07T11:35:08;1.80;;;1.70;;
26588;SDS011;14235;48.532;8.722;2023-05-07T11:37:37;1.73;;;1.55;;
26588;SDS011;14235;48.532;8.722;2023-05-07T11:40:15;3.40;;;1.83;;
26588;SDS011;14235;48.532;8.722;2023-05-07T11:42:46;2.72;;;1.95;;
26588;SDS011;14235;48.532;8.722;2023-05-07T11:45:11;2.17;;;2.08;;
26588;SDS011;14235;48.532;8.722;2023-05-07T11:47:57;2.10;;;2.00;;
26588;SDS011;14235;48.532;8.722;2023-05-07T11:50:30;2.03;;;1.92;;
26588;SDS011;14235;48.532;8.722;2023-05-07T11:53:28;2.88;;;1.73;;
26588;SDS011;14235;48.532;8.722;2023-05-07T11:56:02;1.85;;;1.75;;
26588;SDS011;14235;48.532;8.722;2023-05-07T11:58:45;2.65;;;1.80;;
26588;SDS011;14235;48.532;8.722;2023-05-07T12:01:12;2.17;;;1.90;;
26588;SDS011;14235;48.532;8.722;2023-05-07T12:03:44;2.25;;;2.05;;
26588;SDS011;14235;48.532;8.722;2023-05-07T12:06:18;2.20;;;2.00;;
26588;SDS011;14235;48.532;8.722;2023-05-07T12:08:59;2.25;;;2.00;;
26588;SDS011;14235;48.532;8.722;2023-05-07T12:11:36;4.32;;;1.90;;
26588;SDS011;14235;48.532;8.722;2023-05-07T12:14:10;2.15;;;1.98;;
26588;SDS011;14235;48.532;8.722;2023-05-07T12:16:40;4.80;;;2.20;;
26588;SDS011;14235;48.532;8.722;2023-05-07T12:19:11;2.40;;;2.20;;
26588;SDS011;14235;48.532;8.722;2023-05-07T12:21:42;2.17;;;1.98;;
26588;SDS011;14235;48.532;8.722;2023-05-07T12:24:08;2.00;;;1.70;;
26588;SDS011;14235;48.532;8.722;2023-05-07T12:26:37;2.92;;;1.98;;
26588;SDS011;14235;48.532;8.722;2023-05-07T12:29:14;3.45;;;2.28;;
26588;SDS011;14235;48.532;8.722;2023-05-07T12:31:49;3.25;;;2.50;;
26588;SDS011;14235;48.532;8.722;2023-05-07T12:34:15;4.28;;;2.20;;
26588;SDS011;14235;48.532;8.722;2023-05-07T12:36:41;2.92;;;2.35;;
26588;SDS011;14235;48.532;8.722;2023-05-07T12:39:07;5.97;;;2.72;;
26588;SDS011;14235;48.532;8.722;2023-05-07T12:47:30;5.45;;;3.40;;
26588;SDS011;14235;48.532;8.722;2023-05-07T12:49:59;6.85;;;3.17;;
26588;SDS011;14235;48.532;8.722;2023-05-07T12:52:28;4.00;;;2.90;;
26588;SDS011;14235;48.532;8.722;2023-05-07T12:54:56;4.90;;;2.80;;
26588;SDS011;14235;48.532;8.722;2023-05-07T12:57:31;4.18;;;2.63;;
26588;SDS011;14235;48.532;8.722;2023-05-07T13:00:34;5.75;;;2.78;;
26588;SDS011;14235;48.532;8.722;2023-05-07T13:03:30;4.60;;;2.55;;
26588;SDS011;14235;48.532;8.722;2023-05-07T13:05:57;3.28;;;2.97;;
26588;SDS011;14235;48.532;8.722;2023-05-07T13:08:38;2.92;;;2.60;;
26588;SDS011;14235;48.532;8.722;2023-05-07T13:11:06;7.13;;;3.20;;
26588;SDS011;14235;48.532;8.722;2023-05-07T13:13:33;6.03;;;2.80;;
26588;SDS011;14235;48.532;8.722;2023-05-07T13:15:59;6.85;;;2.90;;
26588;SDS011;14235;48.532;8.722;2023-05-07T13:18:26;4.72;;;2.65;;
26588;SDS011;14235;48.532;8.722;2023-05-07T13:20:52;3.03;;;2.65;;
26588;SDS011;14235;48.532;8.722;2023-05-07T13:23:18;5.63;;;2.97;;
26588;SDS011;14235;48.532;8.722;2023-05-07T13:25:44;6.18;;;3.00;;
26588;SDS011;14235;48.532;8.722;2023-05-07T13:28:10;6.10;;;2.53;;
26588;SDS011;14235;48.532;8.722;2023-05-07T13:30:35;3.35;;;2.70;;
26588;SDS011;14235;48.532;8.722;2023-05-07T13:33:01;4.40;;;2.80;;
26588;SDS011;14235;48.532;8.722;2023-05-07T13:35:27;3.20;;;2.53;;
26588;SDS011;14235;48.532;8.722;2023-05-07T13:37:52;3.53;;;3.10;;
26588;SDS011;14235;48.532;8.722;2023-05-07T13:40:19;6.80;;;2.95;;
26588;SDS011;14235;48.532;8.722;2023-05-07T13:42:45;5.88;;;2.97;;
26588;SDS011;14235;48.532;8.722;2023-05-07T13:45:11;4.03;;;2.97;;
26588;SDS011;14235;48.532;8.722;2023-05-07T13:47:39;5.13;;;3.50;;
26588;SDS011;14235;48.532;8.722;2023-05-07T13:50:05;3.45;;;2.90;;
26588;SDS011;14235;48.532;8.722;2023-05-07T13:52:32;5.10;;;3.08;;
26588;SDS011;14235;48.532;8.722;2023-05-07T13:54:57;4.88;;;3.45;;
26588;SDS011;14235;48.532;8.722;2023-05-07T13:57:23;4.53;;;2.97;;
26588;SDS011;14235;48.532;8.722;2023-05-07T13:59:49;3.22;;;2.88;;
26588;SDS011;14235;48.532;8.722;2023-05-07T14:02:15;3.42;;;2.63;;
26588;SDS011;14235;48.532;8.722;2023-05-07T14:04:40;3.15;;;2.83;;
26588;SDS011;14235;48.532;8.722;2023-05-07T14:07:06;2.88;;;2.63;;
26588;SDS011;14235;48.532;8.722;2023-05-07T14:09:32;3.08;;;2.55;;
26588;SDS011;14235;48.532;8.722;2023-05-07T14:11:58;4.82;;;2.90;;
26588;SDS011;14235;48.532;8.722;2023-05-07T14:14:23;2.90;;;2.40;;
26588;SDS011;14235;48.532;8.722;2023-05-07T14:16:49;4.85;;;2.88;;
26588;SDS011;14235;48.532;8.722;2023-05-07T14:19:15;3.17;;;2.80;;
26588;SDS011;14235;48.532;8.722;2023-05-07T14:21:40;3.45;;;3.08;;
26588;SDS011;14235;48.532;8.722;2023-05-07T14:24:06;3.35;;;2.90;;
26588;SDS011;14235;48.532;8.722;2023-05-07T14:26:33;3.60;;;2.70;;
26588;SDS011;14235;48.532;8.722;2023-05-07T14:28:59;5.88;;;2.83;;
26588;SDS011;14235;48.532;8.722;2023-05-07T14:31:25;3.40;;;3.10;;
26588;SDS011;14235;48.532;8.722;2023-05-07T14:33:51;3.65;;;3.28;;
26588;SDS011;14235;48.532;8.722;2023-05-07T14:36:17;7.25;;;3.15;;
26588;SDS011;14235;48.532;8.722;2023-05-07T14:38:45;8.20;;;2.95;;
26588;SDS011;14235;48.532;8.722;2023-05-07T14:41:11;2.78;;;2.58;;
26588;SDS011;14235;48.532;8.722;2023-05-07T14:43:37;4.35;;;3.17;;
26588;SDS011;14235;48.532;8.722;2023-05-07T14:46:03;4.55;;;3.10;;
26588;SDS011;14235;48.532;8.722;2023-05-07T14:48:28;4.35;;;3.15;;
26588;SDS011;14235;48.532;8.722;2023-05-07T14:50:54;3.15;;;2.85;;
26588;SDS011;14235;48.532;8.722;2023-05-07T14:53:20;3.70;;;2.58;;
26588;SDS011;14235;48.532;8.722;2023-05-07T14:55:47;3.17;;;2.72;;
26588;SDS011;14235;48.532;8.722;2023-05-07T14:58:13;3.78;;;2.50;;
26588;SDS011;14235;48.532;8.722;2023-05-07T15:00:38;3.33;;;2.58;;
26588;SDS011;14235;48.532;8.722;2023-05-07T15:03:07;2.88;;;2.67;;
26588;SDS011;14235;48.532;8.722;2023-05-07T15:05:35;3.78;;;2.72;;
26588;SDS011;14235;48.532;8.722;2023-05-07T15:08:01;3.17;;;2.60;;
26588;SDS011;14235;48.532;8.722;2023-05-07T15:10:27;2.75;;;2.55;;
26588;SDS011;14235;48.532;8.722;2023-05-07T15:12:52;3.20;;;2.63;;
26588;SDS011;14235;48.532;8.722;2023-05-07T15:15:18;3.08;;;2.72;;
26588;SDS011;14235;48.532;8.722;2023-05-07T15:17:43;3.10;;;2.80;;
26588;SDS011;14235;48.532;8.722;2023-05-07T15:20:09;2.90;;;2.60;;
26588;SDS011;14235;48.532;8.722;2023-05-07T15:22:35;6.03;;;2.60;;
26588;SDS011;14235;48.532;8.722;2023-05-07T15:25:02;2.63;;;2.42;;
26588;SDS011;14235;48.532;8.722;2023-05-07T15:27:29;2.85;;;2.22;;
26588;SDS011;14235;48.532;8.722;2023-05-07T15:29:55;3.83;;;2.47;;
26588;SDS011;14235;48.532;8.722;2023-05-07T15:32:21;2.05;;;1.95;;
26588;SDS011;14235;48.532;8.722;2023-05-07T15:34:47;3.10;;;1.98;;
26588;SDS011;14235;48.532;8.722;2023-05-07T15:37:12;2.17;;;1.90;;
26588;SDS011;14235;48.532;8.722;2023-05-07T15:39:38;2.10;;;1.95;;
26588;SDS011;14235;48.532;8.722;2023-05-07T15:42:04;3.38;;;2.30;;
26588;SDS011;14235;48.532;8.722;2023-05-07T15:44:29;2.22;;;2.10;;